Time;durP1;ratioP1;P1;durP2;ratioP2;P2;SDS_P1;SDS_P2;PMS_P1;PMS_P2;Temp;Humidity;BMP_temperature;BMP_pressure;BME280_temperature;BME280_humidity;BME280_pressure;Samples;Min_cycle;Max_cycle;Signal;HPM_P1;HPM_P2
2021/05/19 00:02:12;;;;;;;5.07;1.47;;;;;;;;;;5049898;28;20381;-73
2021/05/19 00:04:37;;;;;;;2.20;1.20;;;;;;;;;;5032199;28;20024;-73
2021/05/19 00:07:03;;;;;;;3.37;1.17;;;;;;;;;;5049755;28;20040;-73
2021/05/19 00:09:28;;;;;;;1.50;1.00;;;;;;;;;;5031800;28;20040;-73
2021/05/19 00:11:54;;;;;;;2.87;1.43;;;;;;;;;;5032093;28;20426;-75
2021/05/19 00:14:20;;;;;;;1.57;1.23;;;;;;;;;;5031631;28;20074;-75
2021/05/19 00:16:47;;;;;;;1.97;1.10;;;;;;;;;;5031826;28;20555;-74
2021/05/19 00:19:13;;;;;;;2.27;1.50;;;;;;;;;;5049600;28;20104;-73
2021/05/19 00:21:39;;;;;;;2.20;1.40;;;;;;;;;;5049794;28;20545;-73
2021/05/19 00:24:06;;;;;;;2.50;1.73;;;;;;;;;;5031362;28;20041;-73
2021/05/19 00:26:32;;;;;;;1.87;1.50;;;;;;;;;;5015008;28;20055;-73
2021/05/19 00:28:58;;;;;;;2.73;1.63;;;;;;;;;;5049304;28;20553;-73
2021/05/19 00:31:26;;;;;;;2.93;1.80;;;;;;;;;;5031650;28;20032;-74
2021/05/19 00:33:52;;;;;;;2.70;1.97;;;;;;;;;;5031416;28;20040;-74
2021/05/19 00:36:18;;;;;;;2.60;1.90;;;;;;;;;;5048995;28;20025;-74
2021/05/19 00:38:43;;;;;;;3.60;1.97;;;;;;;;;;5031531;28;20104;-73
2021/05/19 00:41:12;;;;;;;3.33;1.47;;;;;;;;;;5031495;28;20455;-73
2021/05/19 00:43:38;;;;;;;2.27;1.47;;;;;;;;;;5031231;28;20052;-73
2021/05/19 00:46:04;;;;;;;5.90;2.00;;;;;;;;;;5049646;28;20052;-75
2021/05/19 00:48:30;;;;;;;2.60;1.50;;;;;;;;;;5031042;28;20041;-75
2021/05/19 00:50:55;;;;;;;3.77;1.13;;;;;;;;;;5049117;28;20082;-74
2021/05/19 00:53:21;;;;;;;1.97;1.47;;;;;;;;;;5031028;28;20029;-75
2021/05/19 00:55:46;;;;;;;4.33;2.13;;;;;;;;;;5031498;28;20029;-74
2021/05/19 00:58:12;;;;;;;2.63;1.23;;;;;;;;;;5031018;28;20028;-76
2021/05/19 01:00:38;;;;;;;4.00;2.20;;;;;;;;;;5049432;28;20166;-74
2021/05/19 01:03:04;;;;;;;2.30;1.50;;;;;;;;;;5049013;28;20572;-74
2021/05/19 01:10:44;;;;;;;3.50;1.30;;;;;;;;;;5029421;28;20159;-76
2021/05/19 01:13:10;;;;;;;4.23;1.43;;;;;;;;;;5048848;28;20059;-75
2021/05/19 01:15:36;;;;;;;4.10;1.53;;;;;;;;;;5048785;28;20094;-74
2021/05/19 01:18:04;;;;;;;3.57;1.40;;;;;;;;;;5030768;28;20025;-75
2021/05/19 01:20:30;;;;;;;1.70;1.50;;;;;;;;;;5014286;28;20077;-73
2021/05/19 01:22:56;;;;;;;2.17;1.43;;;;;;;;;;5048471;28;20503;-74
2021/05/19 01:25:22;;;;;;;1.87;1.33;;;;;;;;;;5050437;28;20032;-74
2021/05/19 01:27:56;;;;;;;2.67;1.47;;;;;;;;;;5034163;28;20032;-74
2021/05/19 01:30:22;;;;;;;1.47;1.30;;;;;;;;;;5030988;28;20033;-76
2021/05/19 01:32:48;;;;;;;1.87;1.40;;;;;;;;;;5049121;28;20024;-75
2021/05/19 01:35:15;;;;;;;2.60;1.40;;;;;;;;;;5048993;28;20465;-74
2021/05/19 01:37:41;;;;;;;1.63;1.30;;;;;;;;;;5031541;28;20473;-74
2021/05/19 01:40:08;;;;;;;2.57;1.33;;;;;;;;;;5031174;28;20119;-74
2021/05/19 01:42:33;;;;;;;2.40;1.80;;;;;;;;;;5031785;28;20032;-75
2021/05/19 01:44:59;;;;;;;3.97;1.30;;;;;;;;;;5056704;28;20021;-75
2021/05/19 01:47:39;;;;;;;2.87;1.70;;;;;;;;;;5038366;28;20025;-75
2021/05/19 01:50:11;;;;;;;2.67;1.60;;;;;;;;;;5036189;28;20025;-74
2021/05/19 01:52:37;;;;;;;2.07;1.40;;;;;;;;;;5031073;28;20175;-75
2021/05/19 01:55:05;;;;;;;2.17;1.70;;;;;;;;;;5031471;28;20438;-74
2021/05/19 01:57:32;;;;;;;1.60;1.50;;;;;;;;;;5034204;28;20025;-74
2021/05/19 01:59:58;;;;;;;2.17;1.60;;;;;;;;;;5017247;28;20527;-73
2021/05/19 02:02:25;;;;;;;2.40;1.40;;;;;;;;;;5034472;28;20132;-75
2021/05/19 02:04:52;;;;;;;2.83;1.37;;;;;;;;;;5034107;28;20173;-74
2021/05/19 02:07:17;;;;;;;4.10;1.70;;;;;;;;;;5051995;28;20029;-74
2021/05/19 02:09:43;;;;;;;1.70;1.30;;;;;;;;;;5017876;28;20037;-74
2021/05/19 02:12:09;;;;;;;4.23;1.63;;;;;;;;;;5051891;28;20476;-74
2021/05/19 02:14:34;;;;;;;3.70;1.77;;;;;;;;;;5052355;28;20032;-74
2021/05/19 02:17:00;;;;;;;2.30;1.37;;;;;;;;;;5033632;28;20033;-73
2021/05/19 02:19:25;;;;;;;2.33;1.60;;;;;;;;;;5051601;28;20040;-75
2021/05/19 02:21:51;;;;;;;3.53;1.77;;;;;;;;;;5033734;28;20025;-74
2021/05/19 02:24:18;;;;;;;2.80;1.40;;;;;;;;;;5051362;28;20025;-74
2021/05/19 02:26:44;;;;;;;2.93;1.33;;;;;;;;;;5051896;28;20108;-74
2021/05/19 02:29:10;;;;;;;1.40;1.30;;;;;;;;;;5033547;28;20028;-76
2021/05/19 02:31:38;;;;;;;2.37;1.60;;;;;;;;;;5051873;28;20040;-75
2021/05/19 02:34:04;;;;;;;1.77;1.40;;;;;;;;;;5051348;28;20086;-75
2021/05/19 02:36:30;;;;;;;2.37;1.67;;;;;;;;;;5051183;28;20041;-75
2021/05/19 02:38:55;;;;;;;3.87;1.60;;;;;;;;;;5033924;28;20025;-72
2021/05/19 02:41:21;;;;;;;1.90;1.50;;;;;;;;;;5033290;28;20064;-74
2021/05/19 02:43:47;;;;;;;2.63;1.43;;;;;;;;;;5051505;28;20033;-74
2021/05/19 02:46:13;;;;;;;2.17;1.40;;;;;;;;;;5051072;28;20469;-75
2021/05/19 02:48:39;;;;;;;3.33;1.30;;;;;;;;;;5050985;28;20131;-75
2021/05/19 02:51:05;;;;;;;2.57;1.30;;;;;;;;;;5033019;28;20040;-76
2021/05/19 02:53:30;;;;;;;4.87;1.67;;;;;;;;;;5033422;28;20025;-74
2021/05/19 02:55:56;;;;;;;3.10;1.70;;;;;;;;;;5032758;28;20028;-73
2021/05/19 02:58:22;;;;;;;3.60;1.47;;;;;;;;;;5051083;28;20106;-75
2021/05/19 03:00:47;;;;;;;2.33;1.50;;;;;;;;;;5033190;28;20063;-74
2021/05/19 03:03:14;;;;;;;2.10;1.37;;;;;;;;;;5032919;28;20029;-75
2021/05/19 03:05:40;;;;;;;1.83;1.37;;;;;;;;;;5033097;28;20112;-75
2021/05/19 03:08:06;;;;;;;2.63;1.57;;;;;;;;;;5032520;28;20112;-75
2021/05/19 03:10:34;;;;;;;1.90;1.40;;;;;;;;;;5050945;28;20056;-75
2021/05/19 03:13:00;;;;;;;5.80;1.83;;;;;;;;;;5050759;28;20031;-74
2021/05/19 03:15:26;;;;;;;1.90;1.20;;;;;;;;;;5032802;28;20025;-74
2021/05/19 03:17:53;;;;;;;2.90;1.27;;;;;;;;;;5050548;28;20049;-74
2021/05/19 03:20:18;;;;;;;4.00;1.23;;;;;;;;;;5050408;28;20043;-74
2021/05/19 03:22:44;;;;;;;3.70;1.13;;;;;;;;;;5050748;28;20112;-74
2021/05/19 03:25:10;;;;;;;4.40;1.70;;;;;;;;;;5050521;28;20029;-74
2021/05/19 03:27:36;;;;;;;5.57;1.53;;;;;;;;;;5050587;28;20053;-73
2021/05/19 03:30:04;;;;;;;3.63;1.80;;;;;;;;;;5032219;28;20413;-74
2021/05/19 03:32:30;;;;;;;4.47;2.33;;;;;;;;;;5050619;28;20221;-74
2021/05/19 03:34:56;;;;;;;3.07;1.63;;;;;;;;;;5033403;28;20497;-73
2021/05/19 03:37:22;;;;;;;3.97;1.60;;;;;;;;;;5054443;28;20027;-73
2021/05/19 03:39:48;;;;;;;5.73;1.70;;;;;;;;;;5056508;28;20052;-73
2021/05/19 03:42:14;;;;;;;2.73;1.57;;;;;;;;;;5033475;28;20115;-73
2021/05/19 03:44:39;;;;;;;3.47;1.50;;;;;;;;;;5050300;28;20500;-74
2021/05/19 03:47:05;;;;;;;3.47;1.70;;;;;;;;;;5032557;28;20078;-73
2021/05/19 03:49:34;;;;;;;4.20;1.67;;;;;;;;;;5050571;28;20295;-73
2021/05/19 03:52:00;;;;;;;1.93;1.63;;;;;;;;;;5033088;28;20033;-74
2021/05/19 03:54:25;;;;;;;2.83;2.17;;;;;;;;;;5050859;28;20047;-74
2021/05/19 03:56:51;;;;;;;2.93;1.47;;;;;;;;;;5032874;28;20249;-74
2021/05/19 03:59:17;;;;;;;2.70;1.57;;;;;;;;;;5032221;28;20032;-73
2021/05/19 04:01:43;;;;;;;2.43;1.70;;;;;;;;;;5015814;28;20546;-75
2021/05/19 04:04:09;;;;;;;2.47;1.73;;;;;;;;;;5032242;28;20508;-74
2021/05/19 04:06:34;;;;;;;2.63;1.70;;;;;;;;;;5050304;28;20480;-74
2021/05/19 04:09:00;;;;;;;8.07;3.23;;;;;;;;;;5049497;28;20434;-74
2021/05/19 04:11:25;;;;;;;2.80;1.70;;;;;;;;;;5031933;28;20387;-74
2021/05/19 04:13:51;;;;;;;5.40;1.87;;;;;;;;;;5050099;28;20032;-74
2021/05/19 04:16:18;;;;;;;4.00;2.47;;;;;;;;;;5049448;28;20029;-73
2021/05/19 04:18:43;;;;;;;2.53;1.83;;;;;;;;;;5049425;28;20408;-74
2021/05/19 04:21:09;;;;;;;2.40;1.87;;;;;;;;;;5031536;28;20040;-73
2021/05/19 04:23:35;;;;;;;6.73;3.40;;;;;;;;;;5031621;28;20093;-74
2021/05/19 04:26:01;;;;;;;3.47;1.60;;;;;;;;;;5031787;28;20412;-74
2021/05/19 04:28:27;;;;;;;5.57;2.00;;;;;;;;;;5031756;28;20503;-74
2021/05/19 04:30:53;;;;;;;2.57;1.77;;;;;;;;;;5031802;28;20036;-74
2021/05/19 04:33:21;;;;;;;7.07;2.20;;;;;;;;;;5015137;28;20112;-74
2021/05/19 04:35:47;;;;;;;2.53;2.00;;;;;;;;;;5031689;28;20025;-74
2021/05/19 04:38:14;;;;;;;7.60;2.87;;;;;;;;;;5049217;28;20024;-73
2021/05/19 04:40:40;;;;;;;3.83;3.33;;;;;;;;;;5049379;28;20414;-74
2021/05/19 04:43:08;;;;;;;6.83;2.90;;;;;;;;;;5031141;28;20028;-73
2021/05/19 04:45:34;;;;;;;2.30;1.80;;;;;;;;;;5031321;28;20126;-74
2021/05/19 04:48:00;;;;;;;3.53;1.80;;;;;;;;;;5030839;28;20045;-73
2021/05/19 04:50:25;;;;;;;12.57;2.73;;;;;;;;;;5049244;28;20108;-74
2021/05/19 04:52:51;;;;;;;2.27;1.77;;;;;;;;;;5031170;28;20040;-74
2021/05/19 04:55:17;;;;;;;5.93;2.47;;;;;;;;;;5030928;28;20029;-74
2021/05/19 04:57:43;;;;;;;3.70;2.00;;;;;;;;;;5030934;28;20029;-74
2021/05/19 05:00:10;;;;;;;8.27;2.47;;;;;;;;;;5049430;28;20362;-75
2021/05/19 05:02:37;;;;;;;12.47;1.80;;;;;;;;;;5030115;28;20074;-73
2021/05/19 05:07:17;;;;;;;4.37;2.00;;;;;;;;;;5102189;27;20751;-73
2021/05/19 05:09:47;;;;;;;2.83;1.90;;;;;;;;;;5105714;28;20035;-74
2021/05/19 05:12:13;;;;;;;2.43;1.90;;;;;;;;;;5107268;28;20027;-73
2021/05/19 05:14:39;;;;;;;5.00;2.23;;;;;;;;;;5105973;28;20035;-74
2021/05/19 05:17:04;;;;;;;3.70;1.83;;;;;;;;;;5106999;28;20020;-73
2021/05/19 05:19:30;;;;;;;11.53;2.23;;;;;;;;;;5105524;28;20507;-74
2021/05/19 05:21:55;;;;;;;4.77;1.97;;;;;;;;;;5105991;28;20119;-75
2021/05/19 05:24:21;;;;;;;7.00;2.10;;;;;;;;;;5105504;28;20031;-74
2021/05/19 05:26:46;;;;;;;3.83;2.33;;;;;;;;;;5107417;28;20027;-72
2021/05/19 05:29:12;;;;;;;1.70;1.57;;;;;;;;;;5105568;28;20030;-73
2021/05/19 05:31:37;;;;;;;3.90;2.70;;;;;;;;;;5104104;28;20020;-74
2021/05/19 05:34:03;;;;;;;3.87;1.70;;;;;;;;;;5103594;28;20036;-74
2021/05/19 05:36:28;;;;;;;3.23;1.80;;;;;;;;;;5105893;28;20088;-72
2021/05/19 05:38:54;;;;;;;2.40;2.20;;;;;;;;;;5107254;28;20106;-73
2021/05/19 05:41:19;;;;;;;8.33;2.37;;;;;;;;;;5103553;28;20016;-71
2021/05/19 05:43:45;;;;;;;3.60;2.17;;;;;;;;;;5114341;28;20375;-71
2021/05/19 05:46:10;;;;;;;3.07;2.73;;;;;;;;;;5107025;28;20143;-73
2021/05/19 05:48:37;;;;;;;3.70;2.10;;;;;;;;;;5107059;28;20024;-73
2021/05/19 05:51:03;;;;;;;3.00;1.70;;;;;;;;;;5106257;28;20028;-74
2021/05/19 05:53:29;;;;;;;6.57;3.20;;;;;;;;;;5106998;28;20100;-74
2021/05/19 05:55:54;;;;;;;2.63;1.90;;;;;;;;;;5105551;28;20437;-73
2021/05/19 05:58:21;;;;;;;4.07;2.20;;;;;;;;;;5102460;28;20101;-73
2021/05/19 06:00:46;;;;;;;3.60;1.97;;;;;;;;;;5105886;28;20031;-73
2021/05/19 06:03:12;;;;;;;3.43;1.70;;;;;;;;;;5102399;28;20360;-73
2021/05/19 06:05:37;;;;;;;3.30;2.27;;;;;;;;;;5096755;28;20040;-74
2021/05/19 06:08:05;;;;;;;9.33;2.43;;;;;;;;;;5104530;28;20059;-73
2021/05/19 06:10:31;;;;;;;7.20;1.90;;;;;;;;;;5095740;28;20044;-73
2021/05/19 06:12:56;;;;;;;5.10;2.50;;;;;;;;;;5099742;28;20050;-73
2021/05/19 06:15:22;;;;;;;5.77;2.40;;;;;;;;;;5101118;28;20033;-72
2021/05/19 06:17:48;;;;;;;2.83;2.07;;;;;;;;;;5086148;28;20032;-73
2021/05/19 06:20:14;;;;;;;4.57;1.80;;;;;;;;;;5076769;28;20039;-75
2021/05/19 06:22:39;;;;;;;3.10;1.70;;;;;;;;;;5099316;28;20035;-74
2021/05/19 06:25:06;;;;;;;3.53;2.63;;;;;;;;;;5086330;28;20047;-73
2021/05/19 06:27:31;;;;;;;4.03;2.63;;;;;;;;;;5083495;28;20660;-72
2021/05/19 06:29:57;;;;;;;4.53;2.40;;;;;;;;;;5077903;28;20043;-75
2021/05/19 06:32:22;;;;;;;5.33;2.20;;;;;;;;;;5088579;28;20016;-75
2021/05/19 06:34:48;;;;;;;4.13;2.23;;;;;;;;;;5106809;28;20085;-75
2021/05/19 06:37:13;;;;;;;2.83;2.57;;;;;;;;;;5094570;28;20036;-75
2021/05/19 06:39:42;;;;;;;4.27;2.57;;;;;;;;;;5083033;28;20032;-75
2021/05/19 06:42:08;;;;;;;6.57;2.80;;;;;;;;;;5080680;28;20028;-72
2021/05/19 06:44:36;;;;;;;8.90;3.67;;;;;;;;;;5087388;28;20093;-73
2021/05/19 06:47:02;;;;;;;9.93;2.83;;;;;;;;;;5078101;28;20036;-74
2021/05/19 06:49:28;;;;;;;4.97;2.53;;;;;;;;;;5077729;28;20579;-75
2021/05/19 06:51:58;;;;;;;3.27;2.37;;;;;;;;;;5052048;28;20182;-74
2021/05/19 06:54:25;;;;;;;11.73;3.40;;;;;;;;;;5074003;28;20039;-75
2021/05/19 06:56:50;;;;;;;6.43;3.00;;;;;;;;;;5074437;28;20031;-74
2021/05/19 06:59:18;;;;;;;11.67;4.23;;;;;;;;;;5068916;28;20025;-74
2021/05/19 07:01:45;;;;;;;6.77;2.80;;;;;;;;;;5073775;28;20055;-74
2021/05/19 07:04:10;;;;;;;7.57;3.47;;;;;;;;;;5076118;28;20558;-74
2021/05/19 07:06:36;;;;;;;3.90;2.40;;;;;;;;;;5038564;28;20054;-75
2021/05/19 07:09:03;;;;;;;11.57;7.80;;;;;;;;;;4878618;28;154788;-76
2021/05/19 07:11:29;;;;;;;4.23;2.80;;;;;;;;;;5051039;28;20067;-74
2021/05/19 07:13:57;;;;;;;3.50;2.63;;;;;;;;;;5044267;28;20060;-73
2021/05/19 07:16:26;;;;;;;6.33;3.00;;;;;;;;;;5043419;28;20485;-73
2021/05/19 07:18:56;;;;;;;6.10;3.23;;;;;;;;;;5056043;28;20161;-74
2021/05/19 07:21:23;;;;;;;5.53;2.87;;;;;;;;;;5055807;28;20051;-75
2021/05/19 07:23:49;;;;;;;5.57;3.87;;;;;;;;;;5056655;28;20021;-74
2021/05/19 07:26:16;;;;;;;8.57;3.60;;;;;;;;;;5056746;28;20029;-77
2021/05/19 07:28:42;;;;;;;5.23;3.30;;;;;;;;;;5054464;28;20174;-73
2021/05/19 07:31:08;;;;;;;5.53;3.00;;;;;;;;;;5042712;28;20032;-75
2021/05/19 07:33:34;;;;;;;3.42;2.65;;;;;;;;;;5041522;28;20029;-73
2021/05/19 07:36:03;;;;;;;9.48;3.42;;;;;;;;;;5045194;28;20033;-76
2021/05/19 07:38:29;;;;;;;3.80;3.03;;;;;;;;;;5042147;28;20036;-73
2021/05/19 07:40:54;;;;;;;3.90;2.50;;;;;;;;;;5043261;28;20028;-75
2021/05/19 07:43:22;;;;;;;5.20;2.90;;;;;;;;;;5055984;28;20032;-74
2021/05/19 07:45:51;;;;;;;6.40;3.38;;;;;;;;;;5042564;28;20097;-77
2021/05/19 07:48:18;;;;;;;7.05;4.07;;;;;;;;;;5041437;28;20025;-75
2021/05/19 07:50:45;;;;;;;4.87;3.17;;;;;;;;;;5044337;28;20064;-74
2021/05/19 07:53:18;;;;;;;11.25;2.88;;;;;;;;;;5045358;28;20061;-75
2021/05/19 07:58:29;;;;;;;5.83;3.47;;;;;;;;;;5042291;28;20025;-74
2021/05/19 08:03:22;;;;;;;4.93;3.33;;;;;;;;;;5044391;28;20090;-74
2021/05/19 08:05:49;;;;;;;11.10;3.92;;;;;;;;;;5059275;28;20049;-74
2021/05/19 08:08:15;;;;;;;3.78;3.38;;;;;;;;;;5043290;28;20033;-73
2021/05/19 08:10:42;;;;;;;5.07;3.45;;;;;;;;;;5042311;28;20033;-74
2021/05/19 08:13:09;;;;;;;5.40;3.95;;;;;;;;;;5042678;28;20020;-76
2021/05/19 08:15:35;;;;;;;118.65;57.97;;;;;;;;;;5041631;28;20021;-76
2021/05/19 08:18:08;;;;;;;4.82;3.70;;;;;;;;;;5041989;28;20102;-74
2021/05/19 08:20:35;;;;;;;4.55;3.65;;;;;;;;;;5055156;28;20033;-73
2021/05/19 08:23:01;;;;;;;4.05;3.55;;;;;;;;;;5044116;28;20116;-73
2021/05/19 08:25:27;;;;;;;5.10;3.80;;;;;;;;;;5059102;28;20025;-74
2021/05/19 08:27:56;;;;;;;6.78;3.85;;;;;;;;;;5043950;28;20103;-73
2021/05/19 08:30:22;;;;;;;5.00;4.45;;;;;;;;;;5043283;28;20457;-72
2021/05/19 08:32:51;;;;;;;4.80;3.97;;;;;;;;;;5060658;28;20044;-75
2021/05/19 08:35:17;;;;;;;6.67;4.23;;;;;;;;;;5043635;28;20040;-74
2021/05/19 08:37:42;;;;;;;5.93;4.30;;;;;;;;;;5039031;28;20025;-76
2021/05/19 08:40:08;;;;;;;4.93;3.80;;;;;;;;;;5041558;28;20469;-76
2021/05/19 08:42:37;;;;;;;6.57;4.50;;;;;;;;;;5040224;28;20035;-74
2021/05/19 08:45:05;;;;;;;9.80;4.27;;;;;;;;;;5037474;28;20037;-77
2021/05/19 08:47:31;;;;;;;6.87;4.33;;;;;;;;;;5038350;28;20497;-74
2021/05/19 08:49:56;;;;;;;4.50;4.10;;;;;;;;;;5041867;28;20037;-72
2021/05/19 08:52:22;;;;;;;4.65;4.13;;;;;;;;;;5038649;28;20124;-74
2021/05/19 08:54:50;;;;;;;4.20;3.17;;;;;;;;;;5038984;28;20058;-74
2021/05/19 08:57:17;;;;;;;4.30;3.50;;;;;;;;;;5052649;28;20877;-73
2021/05/19 08:59:43;;;;;;;3.92;3.53;;;;;;;;;;5036524;28;20151;-75
2021/05/19 09:02:14;;;;;;;4.70;3.33;;;;;;;;;;5052851;28;20035;-74
2021/05/19 09:04:43;;;;;;;6.57;3.08;;;;;;;;;;5055862;28;20386;-75
2021/05/19 09:07:18;;;;;;;3.67;2.40;;;;;;;;;;5039139;28;20060;-75
2021/05/19 09:09:43;;;;;;;5.18;3.08;;;;;;;;;;5055859;28;20032;-73
2021/05/19 09:12:11;;;;;;;6.30;3.67;;;;;;;;;;5042036;28;20060;-76
2021/05/19 09:14:43;;;;;;;3.15;2.42;;;;;;;;;;5039726;28;20024;-74
2021/05/19 09:17:29;;;;;;;2.95;2.60;;;;;;;;;;5055238;28;20025;-75
2021/05/19 09:20:01;;;;;;;2.25;2.05;;;;;;;;;;5057923;28;20128;-74
2021/05/19 09:22:30;;;;;;;3.97;2.58;;;;;;;;;;5043194;28;20127;-73
2021/05/19 09:24:57;;;;;;;11.73;3.78;;;;;;;;;;5056279;28;20056;-75
2021/05/19 09:27:24;;;;;;;7.43;3.35;;;;;;;;;;5031498;28;20556;-75
2021/05/19 09:29:52;;;;;;;7.10;3.67;;;;;;;;;;5038803;28;20044;-74
2021/05/19 09:32:21;;;;;;;7.50;4.28;;;;;;;;;;5038623;28;20033;-73
2021/05/19 09:34:53;;;;;;;5.60;3.08;;;;;;;;;;5056248;28;20032;-73
2021/05/19 09:37:20;;;;;;;8.85;3.40;;;;;;;;;;5053646;28;20060;-74
2021/05/19 09:39:49;;;;;;;4.72;3.97;;;;;;;;;;5041049;28;20025;-73
2021/05/19 09:42:16;;;;;;;4.80;4.30;;;;;;;;;;5039562;28;20040;-74
2021/05/19 09:44:44;;;;;;;6.20;4.05;;;;;;;;;;5057349;28;20028;-73
2021/05/19 09:47:38;;;;;;;4.07;3.53;;;;;;;;;;5038672;28;20043;-74
2021/05/19 13:39:18;;;;;;;1.77;1.35;;;;;;;;;;5018487;28;20426;-74
2021/05/19 13:41:54;;;;;;;5.07;1.27;;;;;;;;;;5022366;28;20172;-74
2021/05/19 13:44:23;;;;;;;4.75;2.38;;;;;;;;;;5018231;28;20026;-74
2021/05/19 13:46:54;;;;;;;5.18;1.95;;;;;;;;;;5016096;28;20034;-75
2021/05/19 13:49:32;;;;;;;3.85;1.42;;;;;;;;;;5014839;28;20052;-74
2021/05/19 13:52:07;;;;;;;2.90;1.10;;;;;;;;;;5010780;28;20410;-75
2021/05/19 13:54:38;;;;;;;1.83;1.40;;;;;;;;;;5020376;28;20039;-73
2021/05/19 13:57:04;;;;;;;2.25;1.38;;;;;;;;;;5022219;28;20048;-73
2021/05/19 13:59:30;;;;;;;12.35;2.88;;;;;;;;;;5020882;28;20026;-74
2021/05/19 14:01:55;;;;;;;2.50;1.70;;;;;;;;;;5024760;28;20493;-77
2021/05/19 14:04:21;;;;;;;5.70;1.52;;;;;;;;;;5024807;28;20489;-73
2021/05/19 14:06:47;;;;;;;1.50;0.85;;;;;;;;;;5020835;28;20033;-74
2021/05/19 14:09:16;;;;;;;2.03;0.70;;;;;;;;;;5020726;28;20086;-74
2021/05/19 14:27:57;;;;;;;2.75;0.80;;;;;;;;;;5009056;28;20807;-76
2021/05/19 14:30:22;;;;;;;3.80;0.82;;;;;;;;;;5014524;28;20111;-73
2021/05/19 14:32:48;;;;;;;3.72;2.13;;;;;;;;;;5021385;28;20160;-75
2021/05/19 14:46:24;;;;;;;2.45;1.55;;;;;;;;;;5023378;28;20066;-76
2021/05/19 14:59:46;;;;;;;9.48;1.00;;;;;;;;;;4995731;28;20717;-73
2021/05/19 15:02:11;;;;;;;4.82;3.13;;;;;;;;;;5010912;28;20041;-74
2021/05/19 15:04:38;;;;;;;2.22;0.98;;;;;;;;;;5004855;28;20034;-74
2021/05/19 15:07:03;;;;;;;0.80;0.73;;;;;;;;;;5005123;28;20121;-72
2021/05/19 15:09:29;;;;;;;0.80;0.80;;;;;;;;;;4996487;28;20168;-72
2021/05/19 15:11:55;;;;;;;1.73;0.95;;;;;;;;;;5013027;28;20030;-73
2021/05/19 15:14:22;;;;;;;1.70;1.60;;;;;;;;;;5000414;28;20041;-75
2021/05/19 15:16:48;;;;;;;4.30;2.42;;;;;;;;;;5010216;28;20034;-77
2021/05/19 15:19:13;;;;;;;0.98;0.90;;;;;;;;;;5000092;28;20148;-75
2021/05/19 15:21:41;;;;;;;5.28;1.38;;;;;;;;;;4996090;28;20037;-74
2021/05/19 15:24:07;;;;;;;1.70;1.00;;;;;;;;;;5000195;28;20037;-76
2021/05/19 15:26:32;;;;;;;1.40;1.27;;;;;;;;;;5011571;28;20180;-75
2021/05/19 15:28:58;;;;;;;2.42;1.20;;;;;;;;;;5009268;28;20137;-74
2021/05/19 15:31:27;;;;;;;2.08;1.20;;;;;;;;;;5004787;28;20058;-74
2021/05/19 15:33:52;;;;;;;2.17;1.40;;;;;;;;;;5015136;28;20056;-73
2021/05/19 15:36:18;;;;;;;4.22;1.60;;;;;;;;;;4997426;28;20073;-74
2021/05/19 15:38:44;;;;;;;4.18;1.40;;;;;;;;;;4996727;28;20502;-73
2021/05/19 15:41:09;;;;;;;2.13;1.92;;;;;;;;;;4991366;28;20522;-74
2021/05/19 15:43:35;;;;;;;2.20;1.77;;;;;;;;;;5011575;28;20030;-73
2021/05/19 15:46:01;;;;;;;4.22;1.70;;;;;;;;;;5009889;28;20033;-76
2021/05/19 15:48:27;;;;;;;3.17;2.28;;;;;;;;;;5014026;28;20076;-74
2021/05/19 15:50:54;;;;;;;4.38;2.78;;;;;;;;;;5004383;28;20034;-76
2021/05/19 15:53:20;;;;;;;2.83;2.40;;;;;;;;;;4998702;28;20069;-75
2021/05/19 15:55:47;;;;;;;4.80;1.88;;;;;;;;;;5010396;28;20486;-76
2021/05/19 15:58:13;;;;;;;3.80;1.95;;;;;;;;;;4997990;28;20124;-72
2021/05/19 16:00:39;;;;;;;2.92;1.80;;;;;;;;;;5006862;28;20033;-76
2021/05/19 16:03:05;;;;;;;2.35;1.88;;;;;;;;;;4995838;28;20037;-74
2021/05/19 16:05:31;;;;;;;11.18;2.00;;;;;;;;;;4991668;28;20383;-73
2021/05/19 16:07:57;;;;;;;5.40;2.88;;;;;;;;;;4990436;28;20034;-78
2021/05/19 16:10:22;;;;;;;2.65;1.63;;;;;;;;;;5006383;28;20030;-74
2021/05/19 16:12:48;;;;;;;3.17;1.83;;;;;;;;;;5008048;28;20034;-74
2021/05/19 16:15:14;;;;;;;2.28;1.42;;;;;;;;;;5009751;28;20034;-74
2021/05/19 16:17:40;;;;;;;2.08;1.27;;;;;;;;;;5008987;28;20075;-73
2021/05/19 16:20:08;;;;;;;4.18;1.52;;;;;;;;;;5005570;28;20431;-72
2021/05/19 16:22:34;;;;;;;3.85;2.08;;;;;;;;;;4990683;28;20042;-74
2021/05/19 16:25:00;;;;;;;2.58;1.73;;;;;;;;;;4991433;28;20037;-71
2021/05/19 16:27:25;;;;;;;3.95;2.28;;;;;;;;;;4989184;28;20026;-73
2021/05/19 16:34:07;;;;;;;1.95;1.58;;;;;;;;;;5008561;28;20046;-72
2021/05/19 16:36:56;;;;;;;2.10;1.65;;;;;;;;;;5010361;28;20030;-74
2021/05/19 16:39:24;;;;;;;2.50;1.77;;;;;;;;;;5008577;28;20053;-72
2021/05/19 16:41:53;;;;;;;2.50;1.58;;;;;;;;;;4980638;28;20058;-73
2021/05/19 16:44:20;;;;;;;2.20;1.33;;;;;;;;;;4992921;28;20134;-73
2021/05/19 16:46:48;;;;;;;3.53;2.03;;;;;;;;;;5028053;28;20029;-74
2021/05/19 16:49:14;;;;;;;4.32;1.60;;;;;;;;;;5028889;28;20037;-73
2021/05/19 16:51:49;;;;;;;2.88;1.70;;;;;;;;;;5029167;28;20513;-72
2021/05/19 16:54:18;;;;;;;2.97;1.42;;;;;;;;;;5027911;28;20040;-73
2021/05/19 16:56:45;;;;;;;2.00;1.23;;;;;;;;;;5029536;28;20110;-72
2021/05/19 16:59:12;;;;;;;2.15;1.33;;;;;;;;;;5029552;28;20032;-73
2021/05/19 17:06:49;;;;;;;2.80;1.33;;;;;;;;;;5029909;28;20580;-71
2021/05/19 17:09:14;;;;;;;3.95;1.73;;;;;;;;;;5027827;28;20037;-73
2021/05/19 17:11:40;;;;;;;1.30;1.20;;;;;;;;;;5028351;28;20033;-72
2021/05/19 17:14:08;;;;;;;1.85;1.40;;;;;;;;;;5027690;28;20029;-73
2021/05/19 17:16:33;;;;;;;2.38;1.65;;;;;;;;;;5029709;28;20040;-73
2021/05/19 17:19:00;;;;;;;1.35;1.23;;;;;;;;;;5028198;28;20025;-76
2021/05/19 17:21:25;;;;;;;2.53;1.50;;;;;;;;;;5027087;28;20049;-75
2021/05/19 17:23:51;;;;;;;3.30;2.00;;;;;;;;;;5028881;28;20399;-75
2021/05/19 17:26:17;;;;;;;2.83;2.50;;;;;;;;;;5027811;28;20033;-75
2021/05/19 17:28:42;;;;;;;2.72;2.53;;;;;;;;;;5029343;28;20481;-76
2021/05/19 17:31:08;;;;;;;4.30;2.30;;;;;;;;;;5027799;28;20096;-75
2021/05/19 17:33:33;;;;;;;3.05;1.95;;;;;;;;;;5028866;28;20060;-73
2021/05/19 17:35:59;;;;;;;2.80;1.90;;;;;;;;;;5029559;28;20401;-74
2021/05/19 17:38:24;;;;;;;3.58;2.42;;;;;;;;;;5011134;28;20053;-75
2021/05/19 17:40:50;;;;;;;4.85;2.33;;;;;;;;;;5009410;28;20489;-74
2021/05/19 17:43:16;;;;;;;2.72;1.92;;;;;;;;;;5008298;28;20125;-75
2021/05/19 17:45:42;;;;;;;2.50;1.67;;;;;;;;;;5011760;28;20026;-75
2021/05/19 17:48:08;;;;;;;5.88;2.58;;;;;;;;;;5013273;28;20038;-76
2021/05/19 17:50:33;;;;;;;2.85;1.90;;;;;;;;;;5011826;28;20091;-74
2021/05/19 17:52:59;;;;;;;4.72;1.73;;;;;;;;;;5009213;28;20029;-75
2021/05/19 17:55:24;;;;;;;5.10;2.63;;;;;;;;;;5009121;28;20109;-75
2021/05/19 17:57:52;;;;;;;2.30;1.88;;;;;;;;;;5008512;28;20057;-75
2021/05/19 18:00:18;;;;;;;3.65;2.30;;;;;;;;;;5009032;28;20026;-76
2021/05/19 18:02:44;;;;;;;4.50;3.47;;;;;;;;;;5009843;28;20063;-74
2021/05/19 18:05:10;;;;;;;1.98;1.73;;;;;;;;;;5008011;28;20112;-75
2021/05/19 18:07:39;;;;;;;2.97;2.10;;;;;;;;;;5008055;28;20085;-75
2021/05/19 18:10:06;;;;;;;2.40;1.70;;;;;;;;;;5007761;28;20034;-76
2021/05/19 18:12:32;;;;;;;2.60;1.50;;;;;;;;;;4991680;28;20112;-75
2021/05/19 18:14:58;;;;;;;3.10;1.90;;;;;;;;;;5007663;28;20030;-74
2021/05/19 18:17:24;;;;;;;1.90;1.53;;;;;;;;;;5007999;28;20029;-76
2021/05/19 18:19:51;;;;;;;3.92;2.03;;;;;;;;;;5009165;28;20030;-75
2021/05/19 18:22:16;;;;;;;4.25;2.38;;;;;;;;;;5007756;28;20061;-76
2021/05/19 18:24:42;;;;;;;2.25;1.88;;;;;;;;;;5009982;28;20458;-74
2021/05/19 18:27:16;;;;;;;2.80;2.20;;;;;;;;;;5011377;28;20061;-74
2021/05/19 18:29:50;;;;;;;7.33;3.00;;;;;;;;;;5013219;28;20052;-73
2021/05/19 18:32:19;;;;;;;5.50;3.00;;;;;;;;;;5012507;28;20053;-75
2021/05/19 18:37:12;;;;;;;5.07;3.27;;;;;;;;;;5012392;28;20050;-75
2021/05/19 18:39:42;;;;;;;47.47;5.40;;;;;;;;;;5012122;28;20045;-76
2021/05/19 18:42:13;;;;;;;7.67;2.37;;;;;;;;;;5012572;28;20056;-74
2021/05/19 18:44:38;;;;;;;3.00;2.60;;;;;;;;;;5011893;28;20026;-74
2021/05/19 18:47:06;;;;;;;11.63;2.87;;;;;;;;;;5010638;28;20045;-73
2021/05/19 18:49:34;;;;;;;9.27;4.67;;;;;;;;;;5011546;28;20040;-76
2021/05/19 18:52:04;;;;;;;6.27;3.67;;;;;;;;;;5011120;28;20099;-74
2021/05/19 18:54:30;;;;;;;9.30;3.50;;;;;;;;;;5010869;28;20088;-76
2021/05/19 18:56:56;;;;;;;7.73;2.80;;;;;;;;;;5011115;28;20500;-74
2021/05/19 18:59:23;;;;;;;3.47;2.23;;;;;;;;;;5011952;28;20089;-75
2021/05/19 19:01:48;;;;;;;3.97;2.90;;;;;;;;;;5011086;28;20044;-73
2021/05/19 19:04:15;;;;;;;5.67;2.37;;;;;;;;;;5010898;28;20479;-74
2021/05/19 19:06:41;;;;;;;5.27;3.33;;;;;;;;;;5012204;28;20076;-75
2021/05/19 19:09:11;;;;;;;4.30;2.70;;;;;;;;;;5012265;28;20053;-75
2021/05/19 19:11:37;;;;;;;13.40;3.37;;;;;;;;;;5010737;28;20064;-75
2021/05/19 19:14:09;;;;;;;7.67;4.10;;;;;;;;;;5012476;28;20510;-75
2021/05/19 19:16:39;;;;;;;11.53;10.33;;;;;;;;;;5012038;28;20045;-74
2021/05/19 19:19:06;;;;;;;3.57;2.50;;;;;;;;;;5011624;28;20030;-74
2021/05/19 19:21:32;;;;;;;5.13;2.57;;;;;;;;;;5012036;28;20419;-74
2021/05/19 19:23:59;;;;;;;4.37;3.03;;;;;;;;;;5010452;28;20061;-76
2021/05/19 19:26:25;;;;;;;4.53;3.00;;;;;;;;;;5010523;28;20112;-74
2021/05/19 19:28:51;;;;;;;3.80;2.30;;;;;;;;;;5011763;28;20034;-74
2021/05/19 19:31:18;;;;;;;5.20;2.53;;;;;;;;;;5011345;28;20493;-75
2021/05/19 19:33:44;;;;;;;3.03;2.43;;;;;;;;;;5010257;28;20041;-76